sensor_id;sensor_type;location;lat;lon;timestamp;pressure;altitude;pressure_sealevel;temperature;humidity
57600;BME280;43426;43.594;24.334;2023-04-01T00:01:07;100079.53;;;9.56;80.96
57600;BME280;43426;43.594;24.334;2023-04-01T00:03:33;100102.50;;;9.67;81.34
57600;BME280;43426;43.594;24.334;2023-04-01T00:05:59;100061.94;;;9.45;80.84
57600;BME280;43426;43.594;24.334;2023-04-01T00:08:25;100096.94;;;9.68;81.13
57600;BME280;43426;43.594;24.334;2023-04-01T00:10:52;100096.63;;;9.63;81.19
57600;BME280;43426;43.594;24.334;2023-04-01T00:13:19;100073.31;;;9.56;81.45
57600;BME280;43426;43.594;24.334;2023-04-01T00:15:44;100092.56;;;9.67;80.64
57600;BME280;43426;43.594;24.334;2023-04-01T00:18:11;100091.00;;;9.73;80.44
57600;BME280;43426;43.594;24.334;2023-04-01T00:20:37;100105.59;;;9.79;80.73
57600;BME280;43426;43.594;24.334;2023-04-01T00:23:02;100073.44;;;9.62;80.93
57600;BME280;43426;43.594;24.334;2023-04-01T00:25:28;100096.13;;;9.83;80.74
57600;BME280;43426;43.594;24.334;2023-04-01T00:27:54;100091.31;;;9.78;81.27
57600;BME280;43426;43.594;24.334;2023-04-01T00:30:19;100087.09;;;9.76;80.41
57600;BME280;43426;43.594;24.334;2023-04-01T00:32:45;100073.91;;;9.66;83.23
57600;BME280;43426;43.594;24.334;2023-04-01T00:35:11;100060.03;;;9.54;82.43
57600;BME280;43426;43.594;24.334;2023-04-01T00:37:38;100087.84;;;9.69;82.06
57600;BME280;43426;43.594;24.334;2023-04-01T00:40:06;100081.72;;;9.76;81.06
57600;BME280;43426;43.594;24.334;2023-04-01T00:42:32;100082.47;;;9.69;82.12
57600;BME280;43426;43.594;24.334;2023-04-01T00:44:57;100052.97;;;9.53;82.45
57600;BME280;43426;43.594;24.334;2023-04-01T00:47:24;100054.81;;;9.52;82.85
57600;BME280;43426;43.594;24.334;2023-04-01T00:49:52;100065.44;;;9.69;83.07
57600;BME280;43426;43.594;24.334;2023-04-01T00:52:22;100051.00;;;9.85;82.26
57600;BME280;43426;43.594;24.334;2023-04-01T00:54:55;100043.56;;;9.72;82.07
57600;BME280;43426;43.594;24.334;2023-04-01T00:57:31;100053.47;;;9.71;82.74
57600;BME280;43426;43.594;24.334;2023-04-01T00:59:59;100048.28;;;9.70;82.79
57600;BME280;43426;43.594;24.334;2023-04-01T01:02:25;99993.75;;;9.30;82.25
57600;BME280;43426;43.594;24.334;2023-04-01T01:04:51;100047.03;;;9.58;82.94
57600;BME280;43426;43.594;24.334;2023-04-01T01:12:46;100038.56;;;9.61;83.20
57600;BME280;43426;43.594;24.334;2023-04-01T01:15:25;100011.56;;;9.54;83.40
57600;BME280;43426;43.594;24.334;2023-04-01T01:17:57;100030.16;;;9.64;84.08
57600;BME280;43426;43.594;24.334;2023-04-01T01:20:42;100024.13;;;9.38;85.41
57600;BME280;43426;43.594;24.334;2023-04-01T01:31:24;99994.84;;;8.97;86.23
57600;BME280;43426;43.594;24.334;2023-04-01T01:36:32;100014.81;;;9.03;86.97
57600;BME280;43426;43.594;24.334;2023-04-01T01:39:03;100006.88;;;9.10;86.91
57600;BME280;43426;43.594;24.334;2023-04-01T01:41:30;100001.06;;;9.21;86.11
57600;BME280;43426;43.594;24.334;2023-04-01T01:43:59;100016.59;;;9.34;85.51
57600;BME280;43426;43.594;24.334;2023-04-01T01:46:28;100007.69;;;9.33;85.46
57600;BME280;43426;43.594;24.334;2023-04-01T01:48:57;100002.94;;;9.35;84.59
57600;BME280;43426;43.594;24.334;2023-04-01T01:51:26;99981.84;;;9.24;85.05
57600;BME280;43426;43.594;24.334;2023-04-01T01:53:52;99966.97;;;9.13;84.88
57600;BME280;43426;43.594;24.334;2023-04-01T01:56:19;99997.19;;;9.38;84.40
57600;BME280;43426;43.594;24.334;2023-04-01T01:58:49;99973.78;;;9.62;81.46
57600;BME280;43426;43.594;24.334;2023-04-01T02:01:28;99985.66;;;9.68;82.87
57600;BME280;43426;43.594;24.334;2023-04-01T02:03:56;99994.00;;;9.73;82.95
57600;BME280;43426;43.594;24.334;2023-04-01T02:06:26;99984.06;;;9.59;82.45
57600;BME280;43426;43.594;24.334;2023-04-01T02:08:59;99980.69;;;9.42;83.58
57600;BME280;43426;43.594;24.334;2023-04-01T02:11:33;99968.31;;;9.32;83.90
57600;BME280;43426;43.594;24.334;2023-04-01T02:14:05;99997.19;;;9.38;84.19
57600;BME280;43426;43.594;24.334;2023-04-01T02:17:04;99989.50;;;9.35;84.31
57600;BME280;43426;43.594;24.334;2023-04-01T02:19:36;99966.50;;;9.10;84.82
57600;BME280;43426;43.594;24.334;2023-04-01T02:22:06;99977.03;;;9.19;84.91
57600;BME280;43426;43.594;24.334;2023-04-01T02:24:35;99970.34;;;9.15;85.60
57600;BME280;43426;43.594;24.334;2023-04-01T02:27:03;99951.88;;;8.89;85.32
57600;BME280;43426;43.594;24.334;2023-04-01T02:29:29;99964.94;;;8.92;86.03
57600;BME280;43426;43.594;24.334;2023-04-01T02:31:55;99984.56;;;9.01;86.22
57600;BME280;43426;43.594;24.334;2023-04-01T02:34:22;99961.25;;;8.93;86.22
57600;BME280;43426;43.594;24.334;2023-04-01T02:36:52;99965.53;;;9.02;86.34
57600;BME280;43426;43.594;24.334;2023-04-01T02:39:19;99969.91;;;9.03;86.56
57600;BME280;43426;43.594;24.334;2023-04-01T02:41:45;99966.84;;;9.07;86.59
57600;BME280;43426;43.594;24.334;2023-04-01T02:44:11;99957.75;;;9.08;87.07
57600;BME280;43426;43.594;24.334;2023-04-01T02:46:37;99958.69;;;9.00;87.77
57600;BME280;43426;43.594;24.334;2023-04-01T02:49:02;99956.63;;;9.02;88.30
57600;BME280;43426;43.594;24.334;2023-04-01T02:51:28;99961.13;;;9.10;88.57
57600;BME280;43426;43.594;24.334;2023-04-01T02:53:54;99971.88;;;9.10;88.34
57600;BME280;43426;43.594;24.334;2023-04-01T02:56:20;99927.72;;;8.81;88.43
57600;BME280;43426;43.594;24.334;2023-04-01T02:58:47;99963.22;;;8.99;88.71
57600;BME280;43426;43.594;24.334;2023-04-01T03:01:12;99954.88;;;8.86;88.38
57600;BME280;43426;43.594;24.334;2023-04-01T03:03:38;99953.25;;;8.85;88.77
57600;BME280;43426;43.594;24.334;2023-04-01T03:06:09;99956.81;;;9.00;88.63
57600;BME280;43426;43.594;24.334;2023-04-01T03:08:35;99931.72;;;8.85;89.11
57600;BME280;43426;43.594;24.334;2023-04-01T03:11:02;99950.44;;;9.01;89.38
57600;BME280;43426;43.594;24.334;2023-04-01T03:13:28;99945.31;;;9.07;88.56
57600;BME280;43426;43.594;24.334;2023-04-01T03:15:53;99950.38;;;9.10;88.11
57600;BME280;43426;43.594;24.334;2023-04-01T03:18:19;99953.13;;;9.01;89.77
57600;BME280;43426;43.594;24.334;2023-04-01T03:20:45;99943.47;;;9.07;90.02
57600;BME280;43426;43.594;24.334;2023-04-01T03:23:10;99950.38;;;9.10;89.64
57600;BME280;43426;43.594;24.334;2023-04-01T03:25:36;99928.00;;;8.86;89.28
57600;BME280;43426;43.594;24.334;2023-04-01T03:28:01;99927.41;;;8.76;89.83
57600;BME280;43426;43.594;24.334;2023-04-01T03:30:27;99954.69;;;8.96;89.77
57600;BME280;43426;43.594;24.334;2023-04-01T03:32:53;99930.41;;;8.81;89.77
57600;BME280;43426;43.594;24.334;2023-04-01T03:35:18;99948.19;;;8.82;89.73
57600;BME280;43426;43.594;24.334;2023-04-01T03:37:44;99934.84;;;8.74;89.93
57600;BME280;43426;43.594;24.334;2023-04-01T03:40:10;99961.91;;;8.95;90.22
57600;BME280;43426;43.594;24.334;2023-04-01T03:42:36;99948.69;;;8.85;90.57
57600;BME280;43426;43.594;24.334;2023-04-01T03:45:02;99942.34;;;9.01;89.60
57600;BME280;43426;43.594;24.334;2023-04-01T03:47:30;99958.06;;;9.13;89.00
57600;BME280;43426;43.594;24.334;2023-04-01T03:49:56;99974.16;;;9.21;89.36
57600;BME280;43426;43.594;24.334;2023-04-01T03:52:21;99973.28;;;9.20;90.47
57600;BME280;43426;43.594;24.334;2023-04-01T03:54:47;99958.25;;;9.11;91.21
57600;BME280;43426;43.594;24.334;2023-04-01T03:57:12;99962.31;;;9.07;91.32
57600;BME280;43426;43.594;24.334;2023-04-01T03:59:38;99968.75;;;9.21;91.64
57600;BME280;43426;43.594;24.334;2023-04-01T04:02:03;99987.66;;;9.36;91.44
57600;BME280;43426;43.594;24.334;2023-04-01T04:04:29;99994.16;;;9.42;91.74
57600;BME280;43426;43.594;24.334;2023-04-01T04:06:56;99990.50;;;9.34;91.36
57600;BME280;43426;43.594;24.334;2023-04-01T04:09:22;99982.44;;;9.34;91.77
57600;BME280;43426;43.594;24.334;2023-04-01T04:11:48;99990.44;;;9.43;92.28
57600;BME280;43426;43.594;24.334;2023-04-01T04:14:13;99960.25;;;9.32;89.68
57600;BME280;43426;43.594;24.334;2023-04-01T04:16:39;99974.84;;;9.38;89.27
57600;BME280;43426;43.594;24.334;2023-04-01T04:19:04;99987.66;;;9.36;89.06
57600;BME280;43426;43.594;24.334;2023-04-01T04:21:30;99987.88;;;9.26;90.95
57600;BME280;43426;43.594;24.334;2023-04-01T04:23:56;99969.97;;;9.18;91.60
57600;BME280;43426;43.594;24.334;2023-04-01T04:26:21;99960.63;;;9.06;92.38
57600;BME280;43426;43.594;24.334;2023-04-01T04:28:47;99981.75;;;9.17;91.58
57600;BME280;43426;43.594;24.334;2023-04-01T04:31:17;99989.94;;;9.24;92.18
57600;BME280;43426;43.594;24.334;2023-04-01T04:33:43;99984.25;;;9.19;92.81
57600;BME280;43426;43.594;24.334;2023-04-01T04:36:12;99971.88;;;9.10;91.95
57600;BME280;43426;43.594;24.334;2023-04-01T04:38:38;100005.78;;;9.19;90.77
57600;BME280;43426;43.594;24.334;2023-04-01T04:41:08;99991.72;;;9.32;89.73
57600;BME280;43426;43.594;24.334;2023-04-01T04:43:34;99992.50;;;9.17;89.85
57600;BME280;43426;43.594;24.334;2023-04-01T04:45:59;99970.34;;;9.15;89.84
57600;BME280;43426;43.594;24.334;2023-04-01T04:48:28;100006.44;;;9.44;88.62
57600;BME280;43426;43.594;24.334;2023-04-01T04:50:54;99996.66;;;9.43;88.48
57600;BME280;43426;43.594;24.334;2023-04-01T04:53:22;99971.66;;;9.34;88.96
57600;BME280;43426;43.594;24.334;2023-04-01T04:55:49;99984.03;;;9.44;90.42
57600;BME280;43426;43.594;24.334;2023-04-01T04:58:15;99976.56;;;9.54;89.90
57600;BME280;43426;43.594;24.334;2023-04-01T05:00:41;99983.16;;;9.66;89.57
57600;BME280;43426;43.594;24.334;2023-04-01T05:03:07;99974.22;;;9.66;90.20
57600;BME280;43426;43.594;24.334;2023-04-01T05:05:35;99986.53;;;9.83;89.39
57600;BME280;43426;43.594;24.334;2023-04-01T05:08:01;99971.63;;;9.73;89.97
57600;BME280;43426;43.594;24.334;2023-04-01T05:10:26;99943.34;;;9.38;90.01
57600;BME280;43426;43.594;24.334;2023-04-01T05:12:52;99960.91;;;9.49;90.22
57600;BME280;43426;43.594;24.334;2023-04-01T05:15:17;99966.03;;;9.59;90.59
57600;BME280;43426;43.594;24.334;2023-04-01T05:17:43;99959.72;;;9.52;91.05
57600;BME280;43426;43.594;24.334;2023-04-01T05:20:08;99910.19;;;9.23;93.41
57600;BME280;43426;43.594;24.334;2023-04-01T05:22:34;99936.25;;;9.46;93.75
57600;BME280;43426;43.594;24.334;2023-04-01T05:25:00;99965.09;;;9.52;94.14
57600;BME280;43426;43.594;24.334;2023-04-01T05:27:25;99968.94;;;9.58;94.58
57600;BME280;43426;43.594;24.334;2023-04-01T05:29:51;99961.50;;;9.60;94.87
57600;BME280;43426;43.594;24.334;2023-04-01T05:32:16;99951.94;;;9.57;94.86
57600;BME280;43426;43.594;24.334;2023-04-01T05:34:42;99957.91;;;9.82;94.41
57600;BME280;43426;43.594;24.334;2023-04-01T05:37:07;99960.69;;;9.89;93.61
57600;BME280;43426;43.594;24.334;2023-04-01T05:39:39;99952.88;;;9.94;93.16
57600;BME280;43426;43.594;24.334;2023-04-01T05:42:08;99945.34;;;10.04;93.28
57600;BME280;43426;43.594;24.334;2023-04-01T05:44:34;99939.38;;;10.09;93.56
57600;BME280;43426;43.594;24.334;2023-04-01T05:46:59;99936.22;;;10.20;93.51
57600;BME280;43426;43.594;24.334;2023-04-01T05:49:25;99917.16;;;10.22;92.90
57600;BME280;43426;43.594;24.334;2023-04-01T05:51:50;99921.22;;;10.33;92.73
57600;BME280;43426;43.594;24.334;2023-04-01T05:54:16;99912.09;;;10.34;94.75
57600;BME280;43426;43.594;24.334;2023-04-01T05:56:42;99890.00;;;10.23;95.32
57600;BME280;43426;43.594;24.334;2023-04-01T05:59:10;99912.34;;;10.54;94.18
57600;BME280;43426;43.594;24.334;2023-04-01T06:01:36;99907.78;;;10.54;93.16
57600;BME280;43426;43.594;24.334;2023-04-01T06:04:01;99879.22;;;10.38;92.42
57600;BME280;43426;43.594;24.334;2023-04-01T06:06:29;99910.03;;;10.72;92.26
57600;BME280;43426;43.594;24.334;2023-04-01T06:08:57;99879.75;;;10.70;91.75
57600;BME280;43426;43.594;24.334;2023-04-01T06:22:43;99891.34;;;10.93;88.63
57600;BME280;43426;43.594;24.334;2023-04-01T06:36:05;99842.84;;;11.34;84.91
57600;BME280;43426;43.594;24.334;2023-04-01T06:46:45;99833.13;;;12.43;83.91
57600;BME280;43426;43.594;24.334;2023-04-01T06:52:06;99846.44;;;13.19;82.07
57600;BME280;43426;43.594;24.334;2023-04-01T06:54:42;99825.38;;;13.27;79.46
57600;BME280;43426;43.594;24.334;2023-04-01T06:57:30;99864.22;;;13.87;77.83
57600;BME280;43426;43.594;24.334;2023-04-01T07:00:00;99849.97;;;14.05;74.88
57600;BME280;43426;43.594;24.334;2023-04-01T07:02:51;99866.53;;;14.28;73.50
57600;BME280;43426;43.594;24.334;2023-04-01T07:05:21;99866.59;;;14.54;70.82
57600;BME280;43426;43.594;24.334;2023-04-01T07:07:50;99856.16;;;14.51;71.76
57600;BME280;43426;43.594;24.334;2023-04-01T07:10:47;99839.41;;;14.60;71.83
57600;BME280;43426;43.594;24.334;2023-04-01T07:13:27;99854.53;;;14.81;70.04
57600;BME280;43426;43.594;24.334;2023-04-01T07:16:08;99861.06;;;14.99;70.76
57600;BME280;43426;43.594;24.334;2023-04-01T07:18:52;99859.28;;;15.11;69.95
57600;BME280;43426;43.594;24.334;2023-04-01T07:21:35;99855.31;;;15.14;68.46
57600;BME280;43426;43.594;24.334;2023-04-01T07:24:09;99840.44;;;15.17;68.55
57600;BME280;43426;43.594;24.334;2023-04-01T07:26:36;99841.81;;;15.26;67.92
57600;BME280;43426;43.594;24.334;2023-04-01T07:29:01;99864.97;;;15.54;66.92
57600;BME280;43426;43.594;24.334;2023-04-01T07:47:45;99840.97;;;16.48;64.82
57600;BME280;43426;43.594;24.334;2023-04-01T07:56:06;99857.31;;;17.62;56.68
57600;BME280;43426;43.594;24.334;2023-04-01T07:59:05;99861.22;;;17.66;57.44
57600;BME280;43426;43.594;24.334;2023-04-01T08:01:56;99860.97;;;17.91;55.29
57600;BME280;43426;43.594;24.334;2023-04-01T08:10:51;99858.66;;;18.12;54.86
57600;BME280;43426;43.594;24.334;2023-04-01T08:21:28;99842.63;;;18.78;52.18
57600;BME280;43426;43.594;24.334;2023-04-01T08:23:58;99836.47;;;19.00;53.49
57600;BME280;43426;43.594;24.334;2023-04-01T08:26:39;99855.94;;;19.60;51.98
57600;BME280;43426;43.594;24.334;2023-04-01T08:29:49;99851.00;;;19.79;50.97
57600;BME280;43426;43.594;24.334;2023-04-01T08:32:18;99883.09;;;19.83;53.03
57600;BME280;43426;43.594;24.334;2023-04-01T08:34:51;99875.72;;;18.94;54.66
57600;BME280;43426;43.594;24.334;2023-04-01T08:37:28;99878.91;;;17.75;60.30
57600;BME280;43426;43.594;24.334;2023-04-01T09:16:19;99826.41;;;17.09;59.45
57600;BME280;43426;43.594;24.334;2023-04-01T09:27:28;99817.31;;;18.20;56.95
57600;BME280;43426;43.594;24.334;2023-04-01T09:33:00;99818.31;;;18.31;55.65
57600;BME280;43426;43.594;24.334;2023-04-01T09:35:49;99794.25;;;17.99;56.15
57600;BME280;43426;43.594;24.334;2023-04-01T09:40:55;99801.72;;;18.49;54.09
57600;BME280;43426;43.594;24.334;2023-04-01T09:46:25;99793.84;;;18.53;55.79
57600;BME280;43426;43.594;24.334;2023-04-01T09:51:27;99790.38;;;18.58;53.95
57600;BME280;43426;43.594;24.334;2023-04-01T09:59:46;99787.97;;;18.78;55.11
57600;BME280;43426;43.594;24.334;2023-04-01T10:16:19;99761.63;;;19.06;53.12
57600;BME280;43426;43.594;24.334;2023-04-01T10:36:59;99742.28;;;18.74;57.20
57600;BME280;43426;43.594;24.334;2023-04-01T10:53:24;99731.19;;;19.19;54.28
57600;BME280;43426;43.594;24.334;2023-04-01T10:58:51;99721.47;;;18.38;56.05
57600;BME280;43426;43.594;24.334;2023-04-01T11:09:58;99726.34;;;17.33;59.27
57600;BME280;43426;43.594;24.334;2023-04-01T11:32:17;99708.84;;;15.92;65.36
57600;BME280;43426;43.594;24.334;2023-04-01T11:43:13;99690.88;;;15.72;67.74
57600;BME280;43426;43.594;24.334;2023-04-01T11:45:53;99714.47;;;15.78;67.42
57600;BME280;43426;43.594;24.334;2023-04-01T11:54:06;99744.91;;;15.69;67.62
57600;BME280;43426;43.594;24.334;2023-04-01T11:57:43;99725.38;;;15.60;69.13
57600;BME280;43426;43.594;24.334;2023-04-01T12:08:33;99667.84;;;14.95;80.98
57600;BME280;43426;43.594;24.334;2023-04-01T12:11:12;99659.06;;;14.75;82.48
57600;BME280;43426;43.594;24.334;2023-04-01T12:14:01;99662.25;;;14.90;83.36
57600;BME280;43426;43.594;24.334;2023-04-01T12:19:19;99629.19;;;14.75;84.86
57600;BME280;43426;43.594;24.334;2023-04-01T12:27:22;99654.56;;;14.87;87.41
57600;BME280;43426;43.594;24.334;2023-04-01T12:39:14;99698.09;;;15.18;85.63
57600;BME280;43426;43.594;24.334;2023-04-01T12:52:58;99701.09;;;15.28;81.80
57600;BME280;43426;43.594;24.334;2023-04-01T12:55:42;99689.00;;;15.24;82.80
57600;BME280;43426;43.594;24.334;2023-04-01T13:01:16;99761.19;;;15.01;83.56
57600;BME280;43426;43.594;24.334;2023-04-01T13:12:56;99801.84;;;14.25;90.05
57600;BME280;43426;43.594;24.334;2023-04-01T13:16:24;99798.56;;;14.17;92.48
57600;BME280;43426;43.594;24.334;2023-04-01T13:29:21;99828.41;;;13.78;100.00
57600;BME280;43426;43.594;24.334;2023-04-01T13:38:05;99835.13;;;13.55;100.00
57600;BME280;43426;43.594;24.334;2023-04-01T13:40:39;99846.84;;;13.49;100.00
57600;BME280;43426;43.594;24.334;2023-04-01T13:57:14;99773.88;;;13.48;100.00
57600;BME280;43426;43.594;24.334;2023-04-01T13:59:57;99760.94;;;13.50;100.00
57600;BME280;43426;43.594;24.334;2023-04-01T14:02:44;99758.59;;;13.60;100.00
57600;BME280;43426;43.594;24.334;2023-04-01T14:07:50;99755.03;;;13.66;99.63
57600;BME280;43426;43.594;24.334;2023-04-01T14:10:24;99713.75;;;13.64;98.73
57600;BME280;43426;43.594;24.334;2023-04-01T14:16:50;99725.81;;;14.07;98.31
57600;BME280;43426;43.594;24.334;2023-04-01T14:48:38;99620.28;;;14.24;96.98
57600;BME280;43426;43.594;24.334;2023-04-01T14:59:08;99598.19;;;14.20;94.00
57600;BME280;43426;43.594;24.334;2023-04-01T15:01:40;99615.63;;;14.31;97.56
57600;BME280;43426;43.594;24.334;2023-04-01T15:07:18;99600.56;;;14.35;94.27
57600;BME280;43426;43.594;24.334;2023-04-01T15:18:26;99590.59;;;14.29;88.33
57600;BME280;43426;43.594;24.334;2023-04-01T15:32:01;99576.53;;;14.13;92.65
57600;BME280;43426;43.594;24.334;2023-04-01T15:36:57;99600.38;;;14.30;90.35
57600;BME280;43426;43.594;24.334;2023-04-01T15:42:31;99568.66;;;13.87;94.35
57600;BME280;43426;43.594;24.334;2023-04-01T15:45:31;99577.97;;;13.72;97.46
57600;BME280;43426;43.594;24.334;2023-04-01T15:54:02;99612.16;;;13.99;95.43
57600;BME280;43426;43.594;24.334;2023-04-01T16:04:54;99616.13;;;13.32;96.83
57600;BME280;43426;43.594;24.334;2023-04-01T16:13:22;99630.84;;;13.04;98.36
57600;BME280;43426;43.594;24.334;2023-04-01T16:21:36;99653.22;;;12.86;100.00
57600;BME280;43426;43.594;24.334;2023-04-01T16:24:19;99671.09;;;12.87;100.00
57600;BME280;43426;43.594;24.334;2023-04-01T16:34:41;99740.81;;;13.12;100.00
57600;BME280;43426;43.594;24.334;2023-04-01T16:37:20;99764.78;;;13.08;100.00
57600;BME280;43426;43.594;24.334;2023-04-01T16:40:04;99765.25;;;12.65;100.00
57600;BME280;43426;43.594;24.334;2023-04-01T16:42:50;99779.59;;;12.32;100.00
57600;BME280;43426;43.594;24.334;2023-04-01T16:48:14;99791.22;;;11.57;100.00
57600;BME280;43426;43.594;24.334;2023-04-01T16:51:00;99803.56;;;11.32;100.00
57600;BME280;43426;43.594;24.334;2023-04-01T16:56:22;99812.13;;;11.07;100.00
57600;BME280;43426;43.594;24.334;2023-04-01T16:59:03;99818.75;;;11.04;100.00
57600;BME280;43426;43.594;24.334;2023-04-01T17:08:17;99818.03;;;10.89;100.00
57600;BME280;43426;43.594;24.334;2023-04-01T17:23:42;99826.31;;;10.87;100.00
57600;BME280;43426;43.594;24.334;2023-04-01T17:29:23;99822.69;;;10.73;100.00
57600;BME280;43426;43.594;24.334;2023-04-01T17:31:57;99834.94;;;10.76;100.00
57600;BME280;43426;43.594;24.334;2023-04-01T17:37:30;99827.13;;;10.60;100.00
57600;BME280;43426;43.594;24.334;2023-04-01T17:43:17;99835.22;;;10.60;100.00
57600;BME280;43426;43.594;24.334;2023-04-01T17:45:57;99814.28;;;10.40;100.00
57600;BME280;43426;43.594;24.334;2023-04-01T17:48:49;99837.59;;;10.48;100.00
57600;BME280;43426;43.594;24.334;2023-04-01T17:51:34;99829.06;;;10.44;100.00
57600;BME280;43426;43.594;24.334;2023-04-01T17:57:34;99837.59;;;10.48;100.00
57600;BME280;43426;43.594;24.334;2023-04-01T18:03:29;99841.69;;;10.44;100.00
57600;BME280;43426;43.594;24.334;2023-04-01T18:08:47;99849.34;;;10.40;100.00
57600;BME280;43426;43.594;24.334;2023-04-01T18:17:25;99879.94;;;10.32;99.22
57600;BME280;43426;43.594;24.334;2023-04-01T18:23:35;99885.16;;;10.19;98.54
57600;BME280;43426;43.594;24.334;2023-04-01T18:26:10;99891.84;;;10.23;97.73
57600;BME280;43426;43.594;24.334;2023-04-01T18:28:41;99894.66;;;10.15;98.49
57600;BME280;43426;43.594;24.334;2023-04-01T18:31:18;99893.38;;;10.11;97.44
57600;BME280;43426;43.594;24.334;2023-04-01T18:34:07;99895.13;;;10.18;96.02
57600;BME280;43426;43.594;24.334;2023-04-01T18:36:59;99904.28;;;10.02;94.76
57600;BME280;43426;43.594;24.334;2023-04-01T18:39:36;99905.00;;;9.96;94.75
57600;BME280;43426;43.594;24.334;2023-04-01T18:45:20;99890.63;;;9.74;95.19
57600;BME280;43426;43.594;24.334;2023-04-01T18:48:30;99922.69;;;9.84;94.70
57600;BME280;43426;43.594;24.334;2023-04-01T18:53:17;99861.00;;;9.29;93.69
57600;BME280;43426;43.594;24.334;2023-04-01T18:56:15;99933.16;;;9.79;94.32
57600;BME280;43426;43.594;24.334;2023-04-01T18:58:59;99930.66;;;9.77;93.96
57600;BME280;43426;43.594;24.334;2023-04-01T19:06:56;99941.72;;;9.82;91.84
57600;BME280;43426;43.594;24.334;2023-04-01T19:09:32;99951.31;;;9.85;92.79
57600;BME280;43426;43.594;24.334;2023-04-01T19:12:38;99961.41;;;9.83;92.78
57600;BME280;43426;43.594;24.334;2023-04-01T19:15:12;99962.06;;;9.85;93.09
57600;BME280;43426;43.594;24.334;2023-04-01T19:18:47;99956.50;;;9.86;91.11
57600;BME280;43426;43.594;24.334;2023-04-01T19:35:25;99960.03;;;9.57;93.25
57600;BME280;43426;43.594;24.334;2023-04-01T19:46:46;99972.47;;;9.58;93.95
57600;BME280;43426;43.594;24.334;2023-04-01T19:52:40;99982.19;;;9.59;93.47
57600;BME280;43426;43.594;24.334;2023-04-01T19:58:00;99981.00;;;9.62;92.60
57600;BME280;43426;43.594;24.334;2023-04-01T20:19:14;99967.56;;;9.24;93.73
57600;BME280;43426;43.594;24.334;2023-04-01T20:21:47;99961.63;;;9.28;94.01
57600;BME280;43426;43.594;24.334;2023-04-01T20:26:41;100007.63;;;9.42;93.19
57600;BME280;43426;43.594;24.334;2023-04-01T20:32:23;100001.69;;;9.46;92.15
57600;BME280;43426;43.594;24.334;2023-04-01T20:37:39;100003.63;;;9.37;92.46
57600;BME280;43426;43.594;24.334;2023-04-01T20:40:30;100008.34;;;9.35;91.94
57600;BME280;43426;43.594;24.334;2023-04-01T20:48:31;100024.13;;;9.38;91.06
57600;BME280;43426;43.594;24.334;2023-04-01T20:51:06;100020.78;;;9.36;91.67
57600;BME280;43426;43.594;24.334;2023-04-01T20:53:58;100001.25;;;9.19;90.85
57600;BME280;43426;43.594;24.334;2023-04-01T21:02:25;100024.75;;;9.26;91.46
57600;BME280;43426;43.594;24.334;2023-04-01T21:10:43;100004.00;;;9.11;91.04
57600;BME280;43426;43.594;24.334;2023-04-01T21:13:50;100027.13;;;9.20;91.87
57600;BME280;43426;43.594;24.334;2023-04-01T21:35:36;100040.13;;;9.17;92.12
57600;BME280;43426;43.594;24.334;2023-04-01T22:01:04;100024.97;;;9.16;92.95
57600;BME280;43426;43.594;24.334;2023-04-01T22:06:17;100036.69;;;9.23;93.19
57600;BME280;43426;43.594;24.334;2023-04-01T22:11:30;100028.22;;;9.11;93.92
57600;BME280;43426;43.594;24.334;2023-04-01T22:14:09;100033.31;;;9.06;93.10
57600;BME280;43426;43.594;24.334;2023-04-01T22:16:56;100040.63;;;9.12;93.51
57600;BME280;43426;43.594;24.334;2023-04-01T22:24:59;100020.34;;;9.10;91.75
57600;BME280;43426;43.594;24.334;2023-04-01T22:30:24;100025.69;;;9.33;90.48
57600;BME280;43426;43.594;24.334;2023-04-01T22:33:12;100007.81;;;9.17;90.89
57600;BME280;43426;43.594;24.334;2023-04-01T22:43:43;100023.50;;;9.13;91.36
57600;BME280;43426;43.594;24.334;2023-04-01T22:46:26;100016.00;;;9.00;91.42
57600;BME280;43426;43.594;24.334;2023-04-01T22:49:00;100046.50;;;9.16;91.76
57600;BME280;43426;43.594;24.334;2023-04-01T22:57:14;100046.25;;;9.02;92.78
57600;BME280;43426;43.594;24.334;2023-04-01T23:00:22;100042.25;;;8.98;92.65
57600;BME280;43426;43.594;24.334;2023-04-01T23:05:26;100028.91;;;8.82;93.57
57600;BME280;43426;43.594;24.334;2023-04-01T23:07:56;100031.66;;;8.74;94.00
57600;BME280;43426;43.594;24.334;2023-04-01T23:10:30;100029.97;;;8.73;93.84
57600;BME280;43426;43.594;24.334;2023-04-01T23:13:01;99993.97;;;8.42;93.76
57600;BME280;43426;43.594;24.334;2023-04-01T23:15:28;100026.38;;;8.57;93.60
57600;BME280;43426;43.594;24.334;2023-04-01T23:18:00;100036.75;;;8.60;93.90
57600;BME280;43426;43.594;24.334;2023-04-01T23:28:54;100037.63;;;8.52;93.07
57600;BME280;43426;43.594;24.334;2023-04-01T23:33:53;100029.28;;;8.39;93.47
57600;BME280;43426;43.594;24.334;2023-04-01T23:36:20;100037.63;;;8.44;93.60
57600;BME280;43426;43.594;24.334;2023-04-01T23:38:48;100004.28;;;8.22;93.86
57600;BME280;43426;43.594;24.334;2023-04-01T23:41:25;100011.19;;;8.16;94.44
57600;BME280;43426;43.594;24.334;2023-04-01T23:44:12;100019.75;;;8.20;94.83
57600;BME280;43426;43.594;24.334;2023-04-01T23:46:40;100017.25;;;8.18;94.19
57600;BME280;43426;43.594;24.334;2023-04-01T23:49:13;100019.63;;;8.05;94.95
57600;BME280;43426;43.594;24.334;2023-04-01T23:51:49;100027.84;;;8.12;94.71
57600;BME280;43426;43.594;24.334;2023-04-01T23:57:32;100024.00;;;8.06;94.76
